sensor_id;sensor_type;location;lat;lon;timestamp;P1;durP1;ratioP1;P2;durP2;ratioP2
10582;SDS011;33679;51.218;6.786;2022-12-15T00:01:50;23.87;;;13.17;;
10582;SDS011;33679;51.218;6.786;2022-12-15T00:04:36;22.50;;;13.17;;
10582;SDS011;33679;51.218;6.786;2022-12-15T00:07:23;23.43;;;12.60;;
10582;SDS011;33679;51.218;6.786;2022-12-15T00:10:08;22.70;;;11.50;;
10582;SDS011;33679;51.218;6.786;2022-12-15T00:12:54;25.93;;;12.43;;
10582;SDS011;33679;51.218;6.786;2022-12-15T00:15:39;26.80;;;11.80;;
10582;SDS011;33679;51.218;6.786;2022-12-15T00:18:24;18.23;;;10.03;;
10582;SDS011;33679;51.218;6.786;2022-12-15T00:21:09;18.90;;;11.20;;
10582;SDS011;33679;51.218;6.786;2022-12-15T00:23:54;24.80;;;13.47;;
10582;SDS011;33679;51.218;6.786;2022-12-15T00:26:39;21.47;;;13.00;;
10582;SDS011;33679;51.218;6.786;2022-12-15T00:29:25;22.37;;;13.03;;
10582;SDS011;33679;51.218;6.786;2022-12-15T00:32:12;18.27;;;10.73;;
10582;SDS011;33679;51.218;6.786;2022-12-15T00:34:59;22.20;;;12.60;;
10582;SDS011;33679;51.218;6.786;2022-12-15T00:37:43;22.77;;;11.90;;
10582;SDS011;33679;51.218;6.786;2022-12-15T00:40:30;25.33;;;12.60;;
10582;SDS011;33679;51.218;6.786;2022-12-15T00:43:00;22.07;;;11.43;;
10582;SDS011;33679;51.218;6.786;2022-12-15T00:45:29;23.53;;;14.07;;
10582;SDS011;33679;51.218;6.786;2022-12-15T00:48:10;18.93;;;11.83;;
10582;SDS011;33679;51.218;6.786;2022-12-15T00:50:37;24.73;;;12.73;;
10582;SDS011;33679;51.218;6.786;2022-12-15T00:53:21;18.93;;;10.47;;
10582;SDS011;33679;51.218;6.786;2022-12-15T00:56:07;20.00;;;11.00;;
10582;SDS011;33679;51.218;6.786;2022-12-15T00:58:52;23.10;;;11.67;;
10582;SDS011;33679;51.218;6.786;2022-12-15T01:01:39;20.90;;;11.83;;
10582;SDS011;33679;51.218;6.786;2022-12-15T01:04:24;23.90;;;11.97;;
10582;SDS011;33679;51.218;6.786;2022-12-15T01:07:08;22.30;;;12.73;;
10582;SDS011;33679;51.218;6.786;2022-12-15T01:09:53;22.60;;;12.57;;
10582;SDS011;33679;51.218;6.786;2022-12-15T01:12:38;19.63;;;11.80;;
10582;SDS011;33679;51.218;6.786;2022-12-15T01:15:23;21.07;;;12.97;;
10582;SDS011;33679;51.218;6.786;2022-12-15T01:18:16;27.10;;;12.03;;
10582;SDS011;33679;51.218;6.786;2022-12-15T01:21:01;22.33;;;13.30;;
10582;SDS011;33679;51.218;6.786;2022-12-15T01:23:30;24.90;;;13.47;;
10582;SDS011;33679;51.218;6.786;2022-12-15T01:25:58;21.10;;;12.87;;
10582;SDS011;33679;51.218;6.786;2022-12-15T01:28:25;24.53;;;12.90;;
10582;SDS011;33679;51.218;6.786;2022-12-15T01:30:52;17.30;;;11.00;;
10582;SDS011;33679;51.218;6.786;2022-12-15T01:33:21;23.17;;;12.83;;
10582;SDS011;33679;51.218;6.786;2022-12-15T01:35:54;24.83;;;13.03;;
10582;SDS011;33679;51.218;6.786;2022-12-15T01:38:24;23.63;;;11.93;;
10582;SDS011;33679;51.218;6.786;2022-12-15T01:40:54;26.17;;;13.00;;
10582;SDS011;33679;51.218;6.786;2022-12-15T01:43:23;17.73;;;10.90;;
10582;SDS011;33679;51.218;6.786;2022-12-15T01:45:54;20.90;;;12.40;;
10582;SDS011;33679;51.218;6.786;2022-12-15T01:48:34;17.70;;;11.40;;
10582;SDS011;33679;51.218;6.786;2022-12-15T01:51:07;21.47;;;11.70;;
10582;SDS011;33679;51.218;6.786;2022-12-15T01:53:46;23.33;;;12.90;;
10582;SDS011;33679;51.218;6.786;2022-12-15T01:56:17;18.27;;;10.40;;
10582;SDS011;33679;51.218;6.786;2022-12-15T01:58:46;24.57;;;12.53;;
10582;SDS011;33679;51.218;6.786;2022-12-15T02:01:16;18.80;;;11.93;;
10582;SDS011;33679;51.218;6.786;2022-12-15T02:03:47;23.83;;;10.77;;
10582;SDS011;33679;51.218;6.786;2022-12-15T02:06:15;21.93;;;12.50;;
10582;SDS011;33679;51.218;6.786;2022-12-15T02:08:46;18.13;;;11.73;;
10582;SDS011;33679;51.218;6.786;2022-12-15T02:11:24;25.60;;;12.50;;
10582;SDS011;33679;51.218;6.786;2022-12-15T02:14:05;23.13;;;11.20;;
10582;SDS011;33679;51.218;6.786;2022-12-15T02:16:37;22.83;;;12.37;;
10582;SDS011;33679;51.218;6.786;2022-12-15T02:19:28;26.13;;;12.43;;
10582;SDS011;33679;51.218;6.786;2022-12-15T02:22:17;27.93;;;12.57;;
10582;SDS011;33679;51.218;6.786;2022-12-15T02:27:55;21.50;;;11.73;;
10582;SDS011;33679;51.218;6.786;2022-12-15T02:30:30;22.40;;;11.73;;
10582;SDS011;33679;51.218;6.786;2022-12-15T02:33:14;27.40;;;12.50;;
10582;SDS011;33679;51.218;6.786;2022-12-15T02:35:52;27.37;;;14.87;;
10582;SDS011;33679;51.218;6.786;2022-12-15T02:38:29;28.37;;;14.10;;
10582;SDS011;33679;51.218;6.786;2022-12-15T02:41:01;30.23;;;13.83;;
10582;SDS011;33679;51.218;6.786;2022-12-15T02:43:32;28.73;;;12.50;;
10582;SDS011;33679;51.218;6.786;2022-12-15T02:46:08;32.37;;;15.33;;
10582;SDS011;33679;51.218;6.786;2022-12-15T02:48:47;29.40;;;14.87;;
10582;SDS011;33679;51.218;6.786;2022-12-15T02:51:27;25.87;;;13.33;;
10582;SDS011;33679;51.218;6.786;2022-12-15T02:54:08;28.67;;;13.57;;
10582;SDS011;33679;51.218;6.786;2022-12-15T02:57:08;28.10;;;13.30;;
10582;SDS011;33679;51.218;6.786;2022-12-15T02:59:47;23.90;;;11.77;;
10582;SDS011;33679;51.218;6.786;2022-12-15T03:02:22;27.43;;;12.70;;
10582;SDS011;33679;51.218;6.786;2022-12-15T03:04:52;30.40;;;14.80;;
10582;SDS011;33679;51.218;6.786;2022-12-15T03:07:21;26.90;;;13.43;;
10582;SDS011;33679;51.218;6.786;2022-12-15T03:09:55;30.60;;;14.13;;
10582;SDS011;33679;51.218;6.786;2022-12-15T03:12:25;31.30;;;12.40;;
10582;SDS011;33679;51.218;6.786;2022-12-15T03:14:54;31.90;;;13.67;;
10582;SDS011;33679;51.218;6.786;2022-12-15T03:17:23;22.47;;;11.70;;
10582;SDS011;33679;51.218;6.786;2022-12-15T03:19:53;29.70;;;13.57;;
10582;SDS011;33679;51.218;6.786;2022-12-15T03:22:20;26.20;;;13.20;;
10582;SDS011;33679;51.218;6.786;2022-12-15T03:24:47;31.17;;;14.97;;
10582;SDS011;33679;51.218;6.786;2022-12-15T03:27:17;28.40;;;13.47;;
10582;SDS011;33679;51.218;6.786;2022-12-15T03:29:45;30.63;;;13.63;;
10582;SDS011;33679;51.218;6.786;2022-12-15T03:32:13;31.43;;;14.37;;
10582;SDS011;33679;51.218;6.786;2022-12-15T03:34:45;26.70;;;13.03;;
10582;SDS011;33679;51.218;6.786;2022-12-15T03:37:13;31.33;;;13.43;;
10582;SDS011;33679;51.218;6.786;2022-12-15T03:39:40;26.43;;;13.67;;
10582;SDS011;33679;51.218;6.786;2022-12-15T03:42:09;32.43;;;14.17;;
10582;SDS011;33679;51.218;6.786;2022-12-15T03:44:38;28.53;;;13.50;;
10582;SDS011;33679;51.218;6.786;2022-12-15T03:47:09;32.07;;;14.10;;
10582;SDS011;33679;51.218;6.786;2022-12-15T03:49:36;31.37;;;14.80;;
10582;SDS011;33679;51.218;6.786;2022-12-15T03:52:05;34.00;;;14.60;;
10582;SDS011;33679;51.218;6.786;2022-12-15T03:54:33;29.97;;;15.00;;
10582;SDS011;33679;51.218;6.786;2022-12-15T03:57:05;30.57;;;13.60;;
10582;SDS011;33679;51.218;6.786;2022-12-15T03:59:32;29.13;;;14.90;;
10582;SDS011;33679;51.218;6.786;2022-12-15T04:01:59;30.93;;;15.70;;
10582;SDS011;33679;51.218;6.786;2022-12-15T04:04:26;37.03;;;16.77;;
10582;SDS011;33679;51.218;6.786;2022-12-15T04:06:57;49.33;;;22.13;;
10582;SDS011;33679;51.218;6.786;2022-12-15T04:09:25;34.47;;;17.20;;
10582;SDS011;33679;51.218;6.786;2022-12-15T04:11:55;34.80;;;14.90;;
10582;SDS011;33679;51.218;6.786;2022-12-15T04:14:22;36.03;;;15.37;;
10582;SDS011;33679;51.218;6.786;2022-12-15T04:16:50;37.03;;;16.07;;
10582;SDS011;33679;51.218;6.786;2022-12-15T04:19:17;34.50;;;14.57;;
10582;SDS011;33679;51.218;6.786;2022-12-15T04:22:01;25.73;;;13.87;;
10582;SDS011;33679;51.218;6.786;2022-12-15T04:24:33;34.13;;;16.13;;
10582;SDS011;33679;51.218;6.786;2022-12-15T04:27:18;49.20;;;14.93;;
10582;SDS011;33679;51.218;6.786;2022-12-15T04:30:03;43.63;;;16.43;;
10582;SDS011;33679;51.218;6.786;2022-12-15T04:32:49;36.17;;;16.50;;
10582;SDS011;33679;51.218;6.786;2022-12-15T04:35:34;36.33;;;15.07;;
10582;SDS011;33679;51.218;6.786;2022-12-15T04:38:19;33.20;;;14.30;;
10582;SDS011;33679;51.218;6.786;2022-12-15T04:41:06;38.40;;;14.80;;
10582;SDS011;33679;51.218;6.786;2022-12-15T04:43:51;39.70;;;16.47;;
10582;SDS011;33679;51.218;6.786;2022-12-15T04:46:35;42.37;;;17.10;;
10582;SDS011;33679;51.218;6.786;2022-12-15T04:49:20;36.97;;;15.33;;
10582;SDS011;33679;51.218;6.786;2022-12-15T04:52:05;31.83;;;15.10;;
10582;SDS011;33679;51.218;6.786;2022-12-15T04:54:51;35.03;;;15.93;;
10582;SDS011;33679;51.218;6.786;2022-12-15T04:57:38;35.50;;;15.00;;
10582;SDS011;33679;51.218;6.786;2022-12-15T05:00:22;35.80;;;16.30;;
10582;SDS011;33679;51.218;6.786;2022-12-15T05:03:15;32.93;;;16.37;;
10582;SDS011;33679;51.218;6.786;2022-12-15T05:06:00;38.67;;;17.00;;
10582;SDS011;33679;51.218;6.786;2022-12-15T05:08:47;36.93;;;17.47;;
10582;SDS011;33679;51.218;6.786;2022-12-15T05:11:33;42.23;;;16.80;;
10582;SDS011;33679;51.218;6.786;2022-12-15T05:14:19;35.23;;;16.80;;
10582;SDS011;33679;51.218;6.786;2022-12-15T05:17:04;39.27;;;17.03;;
10582;SDS011;33679;51.218;6.786;2022-12-15T05:19:53;37.00;;;16.50;;
10582;SDS011;33679;51.218;6.786;2022-12-15T05:22:38;35.33;;;17.77;;
10582;SDS011;33679;51.218;6.786;2022-12-15T05:25:22;48.53;;;17.37;;
10582;SDS011;33679;51.218;6.786;2022-12-15T05:28:07;31.33;;;15.70;;
10582;SDS011;33679;51.218;6.786;2022-12-15T05:30:55;39.00;;;15.60;;
10582;SDS011;33679;51.218;6.786;2022-12-15T05:33:40;45.13;;;17.37;;
10582;SDS011;33679;51.218;6.786;2022-12-15T05:36:08;41.47;;;15.93;;
10582;SDS011;33679;51.218;6.786;2022-12-15T05:38:35;43.23;;;15.03;;
10582;SDS011;33679;51.218;6.786;2022-12-15T05:41:08;37.47;;;17.60;;
10582;SDS011;33679;51.218;6.786;2022-12-15T05:43:37;38.87;;;16.70;;
10582;SDS011;33679;51.218;6.786;2022-12-15T05:46:06;32.93;;;15.20;;
10582;SDS011;33679;51.218;6.786;2022-12-15T05:48:33;33.90;;;16.73;;
10582;SDS011;33679;51.218;6.786;2022-12-15T05:51:07;38.87;;;15.90;;
10582;SDS011;33679;51.218;6.786;2022-12-15T05:53:38;39.20;;;17.90;;
10582;SDS011;33679;51.218;6.786;2022-12-15T05:56:07;37.57;;;16.73;;
10582;SDS011;33679;51.218;6.786;2022-12-15T05:58:36;33.90;;;14.70;;
10582;SDS011;33679;51.218;6.786;2022-12-15T06:01:08;35.00;;;14.97;;
10582;SDS011;33679;51.218;6.786;2022-12-15T06:03:38;36.23;;;16.90;;
10582;SDS011;33679;51.218;6.786;2022-12-15T06:06:07;44.97;;;16.17;;
10582;SDS011;33679;51.218;6.786;2022-12-15T06:08:39;35.47;;;16.10;;
10582;SDS011;33679;51.218;6.786;2022-12-15T06:11:11;38.30;;;17.03;;
10582;SDS011;33679;51.218;6.786;2022-12-15T06:13:40;40.83;;;17.60;;
10582;SDS011;33679;51.218;6.786;2022-12-15T06:16:10;34.83;;;16.20;;
10582;SDS011;33679;51.218;6.786;2022-12-15T06:18:41;30.07;;;14.70;;
10582;SDS011;33679;51.218;6.786;2022-12-15T06:21:11;33.70;;;16.03;;
10582;SDS011;33679;51.218;6.786;2022-12-15T06:23:40;29.87;;;15.00;;
10582;SDS011;33679;51.218;6.786;2022-12-15T06:26:08;34.77;;;15.47;;
10582;SDS011;33679;51.218;6.786;2022-12-15T06:28:38;37.53;;;15.40;;
10582;SDS011;33679;51.218;6.786;2022-12-15T06:31:09;40.33;;;16.20;;
10582;SDS011;33679;51.218;6.786;2022-12-15T06:33:38;40.30;;;16.80;;
10582;SDS011;33679;51.218;6.786;2022-12-15T06:36:07;36.03;;;16.37;;
10582;SDS011;33679;51.218;6.786;2022-12-15T06:38:36;27.93;;;14.80;;
10582;SDS011;33679;51.218;6.786;2022-12-15T06:41:04;32.60;;;15.87;;
10582;SDS011;33679;51.218;6.786;2022-12-15T06:43:39;28.73;;;14.53;;
10582;SDS011;33679;51.218;6.786;2022-12-15T06:46:07;34.70;;;15.63;;
10582;SDS011;33679;51.218;6.786;2022-12-15T06:48:35;36.60;;;15.60;;
10582;SDS011;33679;51.218;6.786;2022-12-15T06:51:06;29.83;;;13.67;;
10582;SDS011;33679;51.218;6.786;2022-12-15T06:53:35;27.37;;;13.90;;
10582;SDS011;33679;51.218;6.786;2022-12-15T06:56:06;28.73;;;14.10;;
10582;SDS011;33679;51.218;6.786;2022-12-15T06:58:39;31.37;;;13.77;;
10582;SDS011;33679;51.218;6.786;2022-12-15T07:01:07;28.17;;;14.27;;
10582;SDS011;33679;51.218;6.786;2022-12-15T07:03:43;25.67;;;13.33;;
10582;SDS011;33679;51.218;6.786;2022-12-15T07:06:11;24.80;;;13.53;;
10582;SDS011;33679;51.218;6.786;2022-12-15T07:08:40;29.37;;;13.20;;
10582;SDS011;33679;51.218;6.786;2022-12-15T07:11:10;24.50;;;12.23;;
10582;SDS011;33679;51.218;6.786;2022-12-15T07:13:41;24.70;;;12.30;;
10582;SDS011;33679;51.218;6.786;2022-12-15T07:16:09;23.83;;;11.17;;
10582;SDS011;33679;51.218;6.786;2022-12-15T07:18:37;23.63;;;12.27;;
10582;SDS011;33679;51.218;6.786;2022-12-15T07:21:08;28.17;;;11.93;;
10582;SDS011;33679;51.218;6.786;2022-12-15T07:23:39;22.63;;;12.73;;
10582;SDS011;33679;51.218;6.786;2022-12-15T07:26:07;23.60;;;11.60;;
10582;SDS011;33679;51.218;6.786;2022-12-15T07:28:36;24.03;;;12.13;;
10582;SDS011;33679;51.218;6.786;2022-12-15T07:31:05;23.70;;;12.40;;
10582;SDS011;33679;51.218;6.786;2022-12-15T07:33:33;26.43;;;11.30;;
10582;SDS011;33679;51.218;6.786;2022-12-15T07:36:02;17.50;;;11.00;;
10582;SDS011;33679;51.218;6.786;2022-12-15T07:38:31;26.77;;;12.50;;
10582;SDS011;33679;51.218;6.786;2022-12-15T07:40:59;20.67;;;10.50;;
10582;SDS011;33679;51.218;6.786;2022-12-15T07:43:28;23.07;;;10.60;;
10582;SDS011;33679;51.218;6.786;2022-12-15T07:45:56;24.23;;;11.70;;
10582;SDS011;33679;51.218;6.786;2022-12-15T07:48:24;18.73;;;10.90;;
10582;SDS011;33679;51.218;6.786;2022-12-15T07:50:52;17.40;;;10.40;;
10582;SDS011;33679;51.218;6.786;2022-12-15T07:53:24;22.87;;;11.00;;
10582;SDS011;33679;51.218;6.786;2022-12-15T07:55:54;22.27;;;11.50;;
10582;SDS011;33679;51.218;6.786;2022-12-15T07:58:23;22.30;;;11.33;;
10582;SDS011;33679;51.218;6.786;2022-12-15T08:00:57;18.10;;;10.43;;
10582;SDS011;33679;51.218;6.786;2022-12-15T08:03:26;20.60;;;11.13;;
10582;SDS011;33679;51.218;6.786;2022-12-15T08:05:53;18.60;;;10.53;;
10582;SDS011;33679;51.218;6.786;2022-12-15T08:08:21;26.13;;;13.60;;
10582;SDS011;33679;51.218;6.786;2022-12-15T08:10:55;26.43;;;12.93;;
10582;SDS011;33679;51.218;6.786;2022-12-15T08:13:26;23.13;;;11.37;;
10582;SDS011;33679;51.218;6.786;2022-12-15T08:15:53;20.53;;;11.33;;
10582;SDS011;33679;51.218;6.786;2022-12-15T08:18:21;21.23;;;10.90;;
10582;SDS011;33679;51.218;6.786;2022-12-15T08:20:52;22.67;;;11.90;;
10582;SDS011;33679;51.218;6.786;2022-12-15T08:23:25;21.13;;;11.53;;
10582;SDS011;33679;51.218;6.786;2022-12-15T08:25:57;25.17;;;12.63;;
10582;SDS011;33679;51.218;6.786;2022-12-15T08:28:30;24.17;;;11.37;;
10582;SDS011;33679;51.218;6.786;2022-12-15T08:31:07;28.07;;;12.67;;
10582;SDS011;33679;51.218;6.786;2022-12-15T08:33:38;21.70;;;11.90;;
10582;SDS011;33679;51.218;6.786;2022-12-15T08:36:08;23.27;;;12.43;;
10582;SDS011;33679;51.218;6.786;2022-12-15T08:38:38;24.17;;;13.13;;
10582;SDS011;33679;51.218;6.786;2022-12-15T08:41:13;32.03;;;13.87;;
10582;SDS011;33679;51.218;6.786;2022-12-15T08:43:42;23.67;;;13.67;;
10582;SDS011;33679;51.218;6.786;2022-12-15T08:46:09;28.60;;;13.53;;
10582;SDS011;33679;51.218;6.786;2022-12-15T08:48:37;32.70;;;13.57;;
10582;SDS011;33679;51.218;6.786;2022-12-15T08:51:13;32.83;;;13.37;;
10582;SDS011;33679;51.218;6.786;2022-12-15T08:53:40;27.47;;;14.80;;
10582;SDS011;33679;51.218;6.786;2022-12-15T08:56:10;33.40;;;14.90;;
10582;SDS011;33679;51.218;6.786;2022-12-15T08:58:42;27.53;;;13.83;;
10582;SDS011;33679;51.218;6.786;2022-12-15T09:01:10;28.03;;;13.60;;
10582;SDS011;33679;51.218;6.786;2022-12-15T09:03:39;30.37;;;15.97;;
10582;SDS011;33679;51.218;6.786;2022-12-15T09:06:09;35.13;;;16.27;;
10582;SDS011;33679;51.218;6.786;2022-12-15T09:08:39;27.40;;;14.93;;
10582;SDS011;33679;51.218;6.786;2022-12-15T09:11:06;38.47;;;17.20;;
10582;SDS011;33679;51.218;6.786;2022-12-15T09:13:33;29.53;;;15.07;;
10582;SDS011;33679;51.218;6.786;2022-12-15T09:16:03;33.43;;;16.00;;
10582;SDS011;33679;51.218;6.786;2022-12-15T09:18:32;31.93;;;15.90;;
10582;SDS011;33679;51.218;6.786;2022-12-15T09:21:00;34.07;;;15.00;;
10582;SDS011;33679;51.218;6.786;2022-12-15T09:23:28;31.40;;;15.77;;
10582;SDS011;33679;51.218;6.786;2022-12-15T09:26:06;32.67;;;16.50;;
10582;SDS011;33679;51.218;6.786;2022-12-15T09:28:42;36.10;;;17.30;;
10582;SDS011;33679;51.218;6.786;2022-12-15T09:31:17;35.10;;;17.80;;
10582;SDS011;33679;51.218;6.786;2022-12-15T09:33:46;40.83;;;18.90;;
10582;SDS011;33679;51.218;6.786;2022-12-15T09:36:14;35.37;;;18.10;;
10582;SDS011;33679;51.218;6.786;2022-12-15T09:38:41;37.03;;;17.10;;
10582;SDS011;33679;51.218;6.786;2022-12-15T09:41:12;43.93;;;18.10;;
10582;SDS011;33679;51.218;6.786;2022-12-15T09:43:49;41.47;;;17.07;;
10582;SDS011;33679;51.218;6.786;2022-12-15T09:46:22;38.27;;;18.40;;
10582;SDS011;33679;51.218;6.786;2022-12-15T09:48:56;34.70;;;15.77;;
10582;SDS011;33679;51.218;6.786;2022-12-15T09:51:31;31.50;;;16.47;;
10582;SDS011;33679;51.218;6.786;2022-12-15T09:54:13;34.37;;;16.00;;
10582;SDS011;33679;51.218;6.786;2022-12-15T09:56:41;34.70;;;16.30;;
10582;SDS011;33679;51.218;6.786;2022-12-15T09:59:17;39.60;;;18.63;;
10582;SDS011;33679;51.218;6.786;2022-12-15T10:01:54;41.07;;;18.33;;
10582;SDS011;33679;51.218;6.786;2022-12-15T10:04:33;34.37;;;19.13;;
10582;SDS011;33679;51.218;6.786;2022-12-15T10:07:12;36.77;;;18.10;;
10582;SDS011;33679;51.218;6.786;2022-12-15T10:09:44;35.00;;;16.97;;
10582;SDS011;33679;51.218;6.786;2022-12-15T10:12:13;39.73;;;18.50;;
10582;SDS011;33679;51.218;6.786;2022-12-15T10:14:49;46.63;;;20.03;;
10582;SDS011;33679;51.218;6.786;2022-12-15T10:17:21;39.17;;;18.53;;
10582;SDS011;33679;51.218;6.786;2022-12-15T10:19:52;34.67;;;16.80;;
10582;SDS011;33679;51.218;6.786;2022-12-15T10:22:26;34.90;;;17.67;;
10582;SDS011;33679;51.218;6.786;2022-12-15T10:24:56;43.33;;;18.53;;
10582;SDS011;33679;51.218;6.786;2022-12-15T10:27:32;35.23;;;17.90;;
10582;SDS011;33679;51.218;6.786;2022-12-15T10:30:14;43.33;;;18.00;;
10582;SDS011;33679;51.218;6.786;2022-12-15T10:32:45;31.60;;;16.57;;
10582;SDS011;33679;51.218;6.786;2022-12-15T10:35:16;36.10;;;18.20;;
10582;SDS011;33679;51.218;6.786;2022-12-15T10:37:44;39.93;;;19.00;;
10582;SDS011;33679;51.218;6.786;2022-12-15T10:40:16;39.20;;;18.73;;
10582;SDS011;33679;51.218;6.786;2022-12-15T10:42:45;36.87;;;18.53;;
10582;SDS011;33679;51.218;6.786;2022-12-15T10:45:28;38.40;;;18.70;;
10582;SDS011;33679;51.218;6.786;2022-12-15T10:48:01;43.30;;;20.33;;
10582;SDS011;33679;51.218;6.786;2022-12-15T10:50:31;39.23;;;19.60;;
10582;SDS011;33679;51.218;6.786;2022-12-15T10:52:59;38.80;;;18.23;;
10582;SDS011;33679;51.218;6.786;2022-12-15T10:55:39;36.77;;;18.63;;
10582;SDS011;33679;51.218;6.786;2022-12-15T10:58:14;32.13;;;17.93;;
10582;SDS011;33679;51.218;6.786;2022-12-15T11:00:43;35.10;;;17.73;;
10582;SDS011;33679;51.218;6.786;2022-12-15T11:03:20;39.90;;;18.70;;
10582;SDS011;33679;51.218;6.786;2022-12-15T11:05:52;37.47;;;18.43;;
10582;SDS011;33679;51.218;6.786;2022-12-15T11:08:21;39.47;;;18.97;;
10582;SDS011;33679;51.218;6.786;2022-12-15T11:10:53;36.80;;;19.33;;
10582;SDS011;33679;51.218;6.786;2022-12-15T11:13:39;40.40;;;18.90;;
10582;SDS011;33679;51.218;6.786;2022-12-15T11:16:10;41.03;;;20.20;;
10582;SDS011;33679;51.218;6.786;2022-12-15T11:18:43;38.53;;;19.30;;
10582;SDS011;33679;51.218;6.786;2022-12-15T11:21:16;41.87;;;18.10;;
10582;SDS011;33679;51.218;6.786;2022-12-15T11:23:52;38.00;;;17.97;;
10582;SDS011;33679;51.218;6.786;2022-12-15T11:26:34;42.20;;;19.20;;
10582;SDS011;33679;51.218;6.786;2022-12-15T11:29:09;50.47;;;24.70;;
10582;SDS011;33679;51.218;6.786;2022-12-15T11:31:43;42.77;;;21.10;;
10582;SDS011;33679;51.218;6.786;2022-12-15T11:34:14;44.40;;;21.07;;
10582;SDS011;33679;51.218;6.786;2022-12-15T11:37:09;36.03;;;19.00;;
10582;SDS011;33679;51.218;6.786;2022-12-15T11:39:59;44.80;;;19.13;;
10582;SDS011;33679;51.218;6.786;2022-12-15T11:42:40;43.03;;;20.00;;
10582;SDS011;33679;51.218;6.786;2022-12-15T11:45:16;41.70;;;20.27;;
10582;SDS011;33679;51.218;6.786;2022-12-15T11:47:49;40.47;;;20.20;;
10582;SDS011;33679;51.218;6.786;2022-12-15T11:50:27;40.57;;;21.23;;
10582;SDS011;33679;51.218;6.786;2022-12-15T11:53:03;43.77;;;20.03;;
10582;SDS011;33679;51.218;6.786;2022-12-15T11:55:48;40.20;;;20.87;;
10582;SDS011;33679;51.218;6.786;2022-12-15T12:01:16;43.57;;;20.00;;
10582;SDS011;33679;51.218;6.786;2022-12-15T12:03:56;41.10;;;20.20;;
10582;SDS011;33679;51.218;6.786;2022-12-15T12:06:36;46.67;;;21.87;;
10582;SDS011;33679;51.218;6.786;2022-12-15T12:12:07;44.83;;;20.77;;
10582;SDS011;33679;51.218;6.786;2022-12-15T12:14:45;41.97;;;19.90;;
10582;SDS011;33679;51.218;6.786;2022-12-15T12:17:26;40.37;;;19.13;;
10582;SDS011;33679;51.218;6.786;2022-12-15T12:20:06;37.57;;;18.80;;
10582;SDS011;33679;51.218;6.786;2022-12-15T12:22:41;39.97;;;20.00;;
10582;SDS011;33679;51.218;6.786;2022-12-15T12:25:14;32.80;;;17.37;;
10582;SDS011;33679;51.218;6.786;2022-12-15T12:27:45;37.33;;;16.67;;
10582;SDS011;33679;51.218;6.786;2022-12-15T12:30:20;36.87;;;18.17;;
10582;SDS011;33679;51.218;6.786;2022-12-15T12:32:51;41.67;;;19.40;;
10582;SDS011;33679;51.218;6.786;2022-12-15T12:35:24;41.90;;;19.70;;
10582;SDS011;33679;51.218;6.786;2022-12-15T12:38:00;37.03;;;19.13;;
10582;SDS011;33679;51.218;6.786;2022-12-15T12:40:29;38.20;;;19.50;;
10582;SDS011;33679;51.218;6.786;2022-12-15T12:43:06;40.93;;;19.80;;
10582;SDS011;33679;51.218;6.786;2022-12-15T12:45:36;39.73;;;19.87;;
10582;SDS011;33679;51.218;6.786;2022-12-15T12:48:13;47.20;;;21.00;;
10582;SDS011;33679;51.218;6.786;2022-12-15T12:50:47;38.90;;;20.10;;
10582;SDS011;33679;51.218;6.786;2022-12-15T12:53:26;39.83;;;18.77;;
10582;SDS011;33679;51.218;6.786;2022-12-15T12:55:58;48.53;;;21.67;;
10582;SDS011;33679;51.218;6.786;2022-12-15T12:58:29;38.10;;;19.00;;
10582;SDS011;33679;51.218;6.786;2022-12-15T13:01:04;39.47;;;19.07;;
10582;SDS011;33679;51.218;6.786;2022-12-15T13:03:42;35.03;;;17.70;;
10582;SDS011;33679;51.218;6.786;2022-12-15T13:09:39;43.43;;;21.10;;
10582;SDS011;33679;51.218;6.786;2022-12-15T13:15:02;44.37;;;20.37;;
10582;SDS011;33679;51.218;6.786;2022-12-15T13:17:37;43.83;;;20.83;;
10582;SDS011;33679;51.218;6.786;2022-12-15T13:28:49;39.20;;;19.83;;
10582;SDS011;33679;51.218;6.786;2022-12-15T13:34:17;43.43;;;19.87;;
10582;SDS011;33679;51.218;6.786;2022-12-15T13:36:49;42.77;;;20.83;;
10582;SDS011;33679;51.218;6.786;2022-12-15T13:42:27;35.67;;;18.47;;
10582;SDS011;33679;51.218;6.786;2022-12-15T13:45:04;43.23;;;20.30;;
10582;SDS011;33679;51.218;6.786;2022-12-15T13:53:58;37.67;;;18.37;;
10582;SDS011;33679;51.218;6.786;2022-12-15T13:56:38;37.40;;;18.97;;
10582;SDS011;33679;51.218;6.786;2022-12-15T13:59:15;43.47;;;19.83;;
10582;SDS011;33679;51.218;6.786;2022-12-15T14:01:50;37.80;;;18.20;;
10582;SDS011;33679;51.218;6.786;2022-12-15T14:04:20;38.10;;;18.70;;
10582;SDS011;33679;51.218;6.786;2022-12-15T14:06:51;42.30;;;18.80;;
10582;SDS011;33679;51.218;6.786;2022-12-15T14:09:26;40.90;;;18.63;;
10582;SDS011;33679;51.218;6.786;2022-12-15T14:12:00;38.70;;;18.30;;
10582;SDS011;33679;51.218;6.786;2022-12-15T14:14:31;33.40;;;16.50;;
10582;SDS011;33679;51.218;6.786;2022-12-15T14:17:05;41.00;;;19.40;;
10582;SDS011;33679;51.218;6.786;2022-12-15T14:19:35;51.43;;;23.33;;
10582;SDS011;33679;51.218;6.786;2022-12-15T14:22:15;38.73;;;18.90;;
10582;SDS011;33679;51.218;6.786;2022-12-15T14:24:57;33.83;;;16.77;;
10582;SDS011;33679;51.218;6.786;2022-12-15T14:27:31;51.60;;;20.27;;
10582;SDS011;33679;51.218;6.786;2022-12-15T14:32:59;42.43;;;20.20;;
10582;SDS011;33679;51.218;6.786;2022-12-15T14:35:41;40.70;;;19.97;;
10582;SDS011;33679;51.218;6.786;2022-12-15T14:38:10;34.23;;;16.40;;
10582;SDS011;33679;51.218;6.786;2022-12-15T14:40:43;40.13;;;17.93;;
10582;SDS011;33679;51.218;6.786;2022-12-15T14:43:15;32.50;;;16.50;;
10582;SDS011;33679;51.218;6.786;2022-12-15T14:45:47;30.50;;;15.87;;
10582;SDS011;33679;51.218;6.786;2022-12-15T14:48:20;34.20;;;16.23;;
10582;SDS011;33679;51.218;6.786;2022-12-15T14:50:54;34.40;;;14.30;;
10582;SDS011;33679;51.218;6.786;2022-12-15T14:53:25;35.47;;;17.10;;
10582;SDS011;33679;51.218;6.786;2022-12-15T14:55:57;36.70;;;16.47;;
10582;SDS011;33679;51.218;6.786;2022-12-15T14:58:39;31.77;;;17.07;;
10582;SDS011;33679;51.218;6.786;2022-12-15T15:01:22;35.77;;;18.33;;
10582;SDS011;33679;51.218;6.786;2022-12-15T15:03:57;30.57;;;15.73;;
10582;SDS011;33679;51.218;6.786;2022-12-15T15:06:29;27.73;;;14.77;;
10582;SDS011;33679;51.218;6.786;2022-12-15T15:09:03;32.03;;;15.70;;
10582;SDS011;33679;51.218;6.786;2022-12-15T15:11:44;35.17;;;16.93;;
10582;SDS011;33679;51.218;6.786;2022-12-15T15:14:17;31.30;;;14.93;;
10582;SDS011;33679;51.218;6.786;2022-12-15T15:16:59;38.00;;;16.57;;
10582;SDS011;33679;51.218;6.786;2022-12-15T15:19:32;31.30;;;15.07;;
10582;SDS011;33679;51.218;6.786;2022-12-15T15:22:01;29.83;;;14.00;;
10582;SDS011;33679;51.218;6.786;2022-12-15T15:24:33;34.57;;;16.90;;
10582;SDS011;33679;51.218;6.786;2022-12-15T15:27:22;32.47;;;16.43;;
10582;SDS011;33679;51.218;6.786;2022-12-15T15:29:51;29.93;;;14.53;;
10582;SDS011;33679;51.218;6.786;2022-12-15T15:32:21;35.43;;;16.37;;
10582;SDS011;33679;51.218;6.786;2022-12-15T15:34:49;30.97;;;16.30;;
10582;SDS011;33679;51.218;6.786;2022-12-15T15:37:19;28.87;;;15.40;;
10582;SDS011;33679;51.218;6.786;2022-12-15T15:39:49;29.70;;;14.67;;
10582;SDS011;33679;51.218;6.786;2022-12-15T15:42:18;34.30;;;16.20;;